createdAt,value
2019-03-17T00:00:10.749Z,13.21
2019-03-17T00:00:51.258Z,13.22
2019-03-17T00:01:33.324Z,13.27
2019-03-17T00:02:14.109Z,13.24
2019-03-17T00:02:55.558Z,13.19
2019-03-17T00:03:36.081Z,13.21
2019-03-17T00:04:30.537Z,13.28
2019-03-17T00:04:59.038Z,13.28
2019-03-17T00:05:39.454Z,13.24
2019-03-17T00:06:19.929Z,13.28
2019-03-17T00:07:03.786Z,13.25
2019-03-17T00:07:44.597Z,13.22
2019-03-17T00:08:25.571Z,13.27
2019-03-17T00:09:06.436Z,13.25
2019-03-17T00:09:50.743Z,13.21
2019-03-17T00:10:33.141Z,13.25
2019-03-17T00:11:16.771Z,13.21
2019-03-17T00:11:57.412Z,13.17
2019-03-17T00:12:37.854Z,13.17
2019-03-17T00:13:23.026Z,13.04
2019-03-17T00:14:03.465Z,12.94
2019-03-17T00:14:47.004Z,12.98
2019-03-17T00:15:27.485Z,12.92
2019-03-17T00:16:08.209Z,12.96
2019-03-17T00:16:50.646Z,12.98
2019-03-17T00:17:31.346Z,12.99
2019-03-17T00:18:11.851Z,13.06
2019-03-17T00:18:54.139Z,13.14
2019-03-17T00:19:35.638Z,13.12
2019-03-17T00:20:18.351Z,13.13
2019-03-17T00:21:00.527Z,13.13
2019-03-17T00:21:40.979Z,13.17
2019-03-17T00:22:21.572Z,13.27
2019-03-17T00:23:02.287Z,13.27
2019-03-17T00:23:42.636Z,13.24
2019-03-17T00:24:26.147Z,13.25
2019-03-17T00:25:10.002Z,13.31
2019-03-17T00:25:49.343Z,13.24
2019-03-17T00:26:30.570Z,13.24
2019-03-17T00:27:11.067Z,13.16
2019-03-17T00:27:51.664Z,13.25
2019-03-17T00:28:31.867Z,13.14
2019-03-17T00:29:15.964Z,13.13
2019-03-17T00:29:56.797Z,13.13
2019-03-17T00:30:38.729Z,13.22
2019-03-17T00:31:24.023Z,13.19
2019-03-17T00:32:03.010Z,13.14
2019-03-17T00:32:43.403Z,13.13
2019-03-17T00:33:23.748Z,13.06
2019-03-17T00:34:05.914Z,13.14
2019-03-17T00:34:51.017Z,13.17
2019-03-17T00:35:32.154Z,13.04
2019-03-17T00:36:12.764Z,13.1
2019-03-17T00:36:59.893Z,13.1
2019-03-17T00:37:41.116Z,13.16
2019-03-17T00:38:23.299Z,13.17
2019-03-17T00:39:03.750Z,13.24
2019-03-17T00:39:48.773Z,13.14
2019-03-17T00:40:26.591Z,13.21
2019-03-17T00:41:07.312Z,13.17
2019-03-17T00:41:52.546Z,13.19
2019-03-17T00:42:41.511Z,13.19
2019-03-17T00:43:21.980Z,13.09
2019-03-17T00:44:03.997Z,13.16
2019-03-17T00:44:46.399Z,13.06
2019-03-17T00:45:28.854Z,13.14
2019-03-17T00:46:10.164Z,13.1
2019-03-17T00:46:54.064Z,13.1
2019-03-17T00:47:35.466Z,13.07
2019-03-17T00:48:17.140Z,13.21
2019-03-17T00:48:57.489Z,13.12
2019-03-17T00:49:40.446Z,13.19
2019-03-17T00:50:25.607Z,13.06
2019-03-17T00:51:07.781Z,13.09
2019-03-17T00:51:49.885Z,13.12
2019-03-17T00:52:30.436Z,13.13
2019-03-17T00:53:10.767Z,13.14
2019-03-17T00:53:51.150Z,13.14
2019-03-17T00:54:32.127Z,13.04
2019-03-17T00:55:16.871Z,13.07
2019-03-17T00:56:04.978Z,13.09
2019-03-17T00:56:45.631Z,13.14
2019-03-17T00:57:28.713Z,13.16
2019-03-17T00:58:12.892Z,13.1
2019-03-17T00:58:55.733Z,13.09
2019-03-17T00:59:36.534Z,13.09
2019-03-17T01:00:18.824Z,13.17
2019-03-17T01:01:01.135Z,13.16
2019-03-17T01:01:44.429Z,13.04
2019-03-17T01:02:26.752Z,13.09
2019-03-17T01:03:09.922Z,13.09
2019-03-17T01:03:52.381Z,13.01
2019-03-17T01:04:35.293Z,12.92
2019-03-17T01:05:17.832Z,12.96
2019-03-17T01:05:58.250Z,12.94
2019-03-17T01:06:39.321Z,12.89
2019-03-17T01:07:23.321Z,12.98
2019-03-17T01:08:05.746Z,12.96
2019-03-17T01:08:46.531Z,12.95
2019-03-17T01:09:29.573Z,12.94
2019-03-17T01:10:11.332Z,13.03
2019-03-17T01:10:53.332Z,13.07
2019-03-17T01:11:34.446Z,13.12
2019-03-17T01:12:16.574Z,13.14
2019-03-17T01:12:56.955Z,13.09
2019-03-17T01:13:37.466Z,13.04
2019-03-17T01:14:21.538Z,13.1
2019-03-17T01:15:02.031Z,13.14
2019-03-17T01:15:44.116Z,13.1
2019-03-17T01:16:24.528Z,13.12
2019-03-17T01:17:07.887Z,13.14
2019-03-17T01:17:52.382Z,13.12
2019-03-17T01:18:38.821Z,13.19
2019-03-17T01:19:20.839Z,13.21
2019-03-17T01:21:26.327Z,13.22
2019-03-17T01:22:11.527Z,13.22
2019-03-17T01:23:01.003Z,13.22
2019-03-17T01:23:41.253Z,13.21
2019-03-17T01:24:23.476Z,13.17
2019-03-17T01:25:07.590Z,13.17
2019-03-17T01:25:48.069Z,13.12
2019-03-17T01:26:32.218Z,13.13
2019-03-17T01:27:14.637Z,13.16
2019-03-17T01:27:56.809Z,13.17
2019-03-17T01:28:39.042Z,13.27
2019-03-17T01:29:23.117Z,13.22
2019-03-17T01:30:08.074Z,13.24
2019-03-17T01:30:50.101Z,13.19
2019-03-17T01:31:30.513Z,13.17
2019-03-17T01:32:14.920Z,13.19
2019-03-17T01:32:59.684Z,13.12
2019-03-17T01:33:43.073Z,13.07
2019-03-17T01:34:23.451Z,13.01
2019-03-17T01:35:09.384Z,13.04
2019-03-17T01:35:48.280Z,13.06
2019-03-17T01:36:28.620Z,13.16
2019-03-17T01:37:14.020Z,13.16
2019-03-17T01:37:57.713Z,13.24
2019-03-17T01:38:39.350Z,13.14
2019-03-17T01:39:19.787Z,13.12
2019-03-17T01:40:08.202Z,13.06
2019-03-17T01:40:48.929Z,13.13
2019-03-17T01:41:31.204Z,13.16
2019-03-17T01:42:12.615Z,13.06
2019-03-17T01:42:53.606Z,13.07
2019-03-17T01:43:34.420Z,13.04
2019-03-17T01:44:15.739Z,12.96
2019-03-17T01:44:57.911Z,12.94
2019-03-17T01:45:41.232Z,12.95
2019-03-17T01:46:22.313Z,12.98
2019-03-17T01:57:09.442Z,12.8
2019-03-17T01:58:04.524Z,12.7
2019-03-17T02:00:17.804Z,12.66
2019-03-17T02:01:12.628Z,12.66
2019-03-17T02:03:11.795Z,12.67
2019-03-17T02:10:04.000Z,12.7
2019-03-17T02:19:47.198Z,12.63
2019-03-17T02:20:27.845Z,12.61
2019-03-17T02:21:08.253Z,12.59
2019-03-17T02:21:50.624Z,12.74
2019-03-17T02:22:31.170Z,12.7
2019-03-17T02:23:11.624Z,12.58
2019-03-17T02:23:51.933Z,12.77
2019-03-17T02:24:32.371Z,12.73
2019-03-17T02:25:14.274Z,12.63
2019-03-17T02:25:59.210Z,12.67
2019-03-17T02:26:39.772Z,12.61
2019-03-17T02:27:21.102Z,12.77
2019-03-17T02:28:03.130Z,12.67
2019-03-17T02:28:50.084Z,12.8
2019-03-17T02:29:32.559Z,12.76
2019-03-17T02:30:16.387Z,12.74
2019-03-17T02:31:00.606Z,12.77
2019-03-17T02:31:41.566Z,12.77
2019-03-17T02:32:23.962Z,12.63
2019-03-17T02:33:07.569Z,12.66
2019-03-17T02:33:50.089Z,12.7
2019-03-17T02:34:30.457Z,12.74
2019-03-17T02:35:16.510Z,12.59
2019-03-17T02:35:57.096Z,12.61
2019-03-17T02:36:38.710Z,12.71
2019-03-17T02:37:23.166Z,12.62
2019-03-17T02:38:03.896Z,12.74
2019-03-17T02:38:44.304Z,12.77
2019-03-17T02:39:27.859Z,12.84
2019-03-17T02:40:08.222Z,12.74
2019-03-17T02:40:52.468Z,12.84
2019-03-17T02:41:36.972Z,12.67
2019-03-17T02:42:19.479Z,12.71
2019-03-17T02:43:00.769Z,12.63
2019-03-17T02:43:41.836Z,12.62
2019-03-17T02:44:22.393Z,12.7
2019-03-17T02:45:07.731Z,12.59
2019-03-17T02:45:52.097Z,12.66
2019-03-17T02:46:33.452Z,12.62
2019-03-17T02:47:14.601Z,12.61
2019-03-17T02:47:56.740Z,12.7
2019-03-17T02:48:37.180Z,12.67
2019-03-17T02:49:18.923Z,12.63
2019-03-17T02:49:59.591Z,12.73
2019-03-17T02:50:43.096Z,12.73
2019-03-17T02:51:23.593Z,12.77
2019-03-17T02:52:08.495Z,12.81
2019-03-17T02:52:48.989Z,12.77
2019-03-17T02:53:33.988Z,12.79
2019-03-17T02:54:15.223Z,12.88
2019-03-17T02:54:58.474Z,12.8
2019-03-17T02:55:42.365Z,12.74
2019-03-17T02:56:23.628Z,12.7
2019-03-17T02:57:05.741Z,12.69
2019-03-17T02:57:47.029Z,12.58
2019-03-17T02:58:27.449Z,12.73
2019-03-17T02:59:08.938Z,12.76
2019-03-17T02:59:51.700Z,12.77
2019-03-17T03:00:32.143Z,12.79
2019-03-17T03:01:14.250Z,12.85
2019-03-17T03:01:56.242Z,12.77
2019-03-17T03:02:45.265Z,12.79
2019-03-17T03:03:27.390Z,12.76
2019-03-17T03:04:10.832Z,12.77
2019-03-17T03:04:51.055Z,12.84
2019-03-17T03:05:32.363Z,12.77
2019-03-17T03:06:12.657Z,12.76
2019-03-17T03:06:53.284Z,12.87
2019-03-17T03:07:35.616Z,12.79
2019-03-17T03:08:16.151Z,12.81
2019-03-17T03:08:58.461Z,12.8
2019-03-17T03:09:40.741Z,12.71
2019-03-17T03:10:24.082Z,12.77
2019-03-17T03:11:06.092Z,12.74
2019-03-17T03:11:48.216Z,12.74
2019-03-17T03:12:32.156Z,12.74
2019-03-17T03:13:13.239Z,12.59
2019-03-17T03:13:53.645Z,12.58
2019-03-17T03:14:36.784Z,12.63
2019-03-17T03:15:18.233Z,12.56
2019-03-17T03:16:00.548Z,12.61
2019-03-17T03:16:44.523Z,12.55
2019-03-17T03:17:25.475Z,12.54
2019-03-17T03:18:08.509Z,12.55
2019-03-17T03:18:49.710Z,12.55
2019-03-17T03:19:31.317Z,12.41
2019-03-17T03:20:14.335Z,12.54
2019-03-17T03:20:55.593Z,12.58
2019-03-17T03:21:36.056Z,12.49
2019-03-17T03:22:17.741Z,12.44
2019-03-17T03:22:57.949Z,12.4
2019-03-17T03:23:40.388Z,12.48
2019-03-17T03:24:21.277Z,12.41
2019-03-17T03:25:06.542Z,12.31
2019-03-17T03:25:49.569Z,12.34
2019-03-17T03:26:32.119Z,12.38
2019-03-17T03:27:14.492Z,12.37
2019-03-17T03:27:56.138Z,12.4
2019-03-17T03:28:39.347Z,12.37
2019-03-17T03:29:21.425Z,12.37
2019-03-17T03:30:06.183Z,12.38
2019-03-17T03:30:48.170Z,12.48
2019-03-17T03:31:31.594Z,12.38
2019-03-17T03:32:12.156Z,12.44
2019-03-17T03:32:54.135Z,12.37
2019-03-17T03:33:36.820Z,12.38
2019-03-17T03:34:18.699Z,12.38
2019-03-17T03:35:00.881Z,12.38
2019-03-17T03:35:40.660Z,12.37
2019-03-17T03:36:23.064Z,12.43
2019-03-17T03:37:08.176Z,12.4
2019-03-17T03:37:51.187Z,12.41
2019-03-17T03:38:31.504Z,12.43
2019-03-17T03:39:13.113Z,12.37
2019-03-17T03:39:53.784Z,12.33
2019-03-17T03:40:34.887Z,12.37
2019-03-17T03:41:16.916Z,12.44
2019-03-17T03:41:57.597Z,12.43
2019-03-17T03:42:38.593Z,12.38
2019-03-17T03:43:27.608Z,12.43
2019-03-17T03:44:11.702Z,12.4
2019-03-17T03:44:52.176Z,12.38
2019-03-17T03:45:35.051Z,12.38
2019-03-17T03:46:15.589Z,12.41
2019-03-17T03:46:55.929Z,12.41
2019-03-17T03:47:36.413Z,12.31
2019-03-17T03:48:18.804Z,12.33
2019-03-17T03:48:59.568Z,12.34
2019-03-17T03:49:44.018Z,12.33
2019-03-17T03:50:25.304Z,12.25
2019-03-17T03:51:05.834Z,12.33
2019-03-17T03:51:46.491Z,12.36
2019-03-17T03:52:27.835Z,12.36
2019-03-17T03:53:09.997Z,12.36
2019-03-17T03:53:51.980Z,12.36
2019-03-17T03:54:32.426Z,12.36
2019-03-17T03:55:14.108Z,12.29
2019-03-17T03:55:58.598Z,12.34
2019-03-17T03:56:40.384Z,12.34
2019-03-17T03:57:21.560Z,12.31
2019-03-17T03:58:05.080Z,12.3
2019-03-17T03:58:47.384Z,12.37
2019-03-17T03:59:28.241Z,12.43
2019-03-17T04:00:20.257Z,12.37
2019-03-17T04:01:03.993Z,12.37
2019-03-17T04:01:45.572Z,12.37
2019-03-17T04:02:29.088Z,12.33
2019-03-17T04:03:10.854Z,12.3
2019-03-17T04:03:51.615Z,12.25
2019-03-17T04:04:33.127Z,12.25
2019-03-17T04:05:17.099Z,12.26
2019-03-17T04:10:27.584Z,12.44
2019-03-17T04:15:15.920Z,12.19
2019-03-17T04:16:00.085Z,12.3
2019-03-17T04:16:41.578Z,12.25
2019-03-17T04:17:25.361Z,12.4
2019-03-17T04:18:09.396Z,12.29
2019-03-17T04:18:55.475Z,12.29
2019-03-17T04:19:37.659Z,12.23
2019-03-17T04:20:21.099Z,12.34
2019-03-17T04:21:03.284Z,12.29
2019-03-17T04:21:43.610Z,12.34
2019-03-17T04:22:28.455Z,12.37
2019-03-17T04:23:11.506Z,12.3
2019-03-17T04:23:53.737Z,12.33
2019-03-17T04:24:35.801Z,12.36
2019-03-17T04:25:21.921Z,12.38
2019-03-17T04:26:04.623Z,12.3
2019-03-17T04:26:46.687Z,12.25
2019-03-17T04:27:27.612Z,12.29
2019-03-17T04:28:07.978Z,12.36
2019-03-17T05:08:04.027Z,11.74
2019-03-17T05:14:19.340Z,11.53
2019-03-17T05:16:43.162Z,11.46
2019-03-17T05:17:38.299Z,11.46
2019-03-17T05:29:25.072Z,11.85
2019-03-17T05:34:50.227Z,12.11
2019-03-17T05:41:46.930Z,12.15
2019-03-17T05:43:53.395Z,12.07
2019-03-17T05:47:31.995Z,11.9
2019-03-17T05:53:01.496Z,11.78
2019-03-17T05:53:44.611Z,11.79
2019-03-17T05:54:26.858Z,11.78
2019-03-17T05:55:07.291Z,11.78
2019-03-17T05:55:47.821Z,11.75
2019-03-17T05:56:30.202Z,11.82
2019-03-17T05:57:14.009Z,11.9
2019-03-17T05:57:56.360Z,11.88
2019-03-17T05:58:37.027Z,11.82
2019-03-17T05:59:19.612Z,11.79
2019-03-17T05:59:58.599Z,11.77
2019-03-17T06:00:43.045Z,11.75
2019-03-17T06:01:23.436Z,11.84
2019-03-17T06:02:06.513Z,11.88
2019-03-17T06:02:47.013Z,11.85
2019-03-17T06:03:29.258Z,11.72
2019-03-17T06:04:09.661Z,11.78
2019-03-17T06:04:55.222Z,11.84
2019-03-17T06:05:37.906Z,11.98
2019-03-17T06:06:18.321Z,11.96
2019-03-17T06:07:02.325Z,11.98
2019-03-17T06:13:21.921Z,12.03
2019-03-17T06:14:04.806Z,11.87
2019-03-17T06:14:50.182Z,11.69
2019-03-17T06:15:35.201Z,11.64
2019-03-17T06:16:21.259Z,11.72
2019-03-17T06:17:01.663Z,11.77
2019-03-17T06:17:46.849Z,11.75
2019-03-17T06:18:30.506Z,11.77
2019-03-17T06:19:12.320Z,11.69
2019-03-17T06:19:53.563Z,11.67
2019-03-17T06:20:34.906Z,11.57
2019-03-17T06:21:17.011Z,11.48
2019-03-17T06:43:37.425Z,11.54
2019-03-17T06:44:21.579Z,11.56
2019-03-17T06:45:01.950Z,11.56
2019-03-17T06:45:45.154Z,11.66
2019-03-17T06:46:25.874Z,11.63
2019-03-17T06:47:06.565Z,11.69
2019-03-17T06:47:50.108Z,11.63
2019-03-17T06:48:32.555Z,11.63
2019-03-17T06:49:14.468Z,11.64
2019-03-17T06:50:00.356Z,11.66
2019-03-17T06:50:43.302Z,11.75
2019-03-17T06:51:23.559Z,11.66
2019-03-17T06:52:07.701Z,11.6
2019-03-17T06:52:48.329Z,11.72
2019-03-17T06:53:38.397Z,11.6
2019-03-17T06:54:21.303Z,11.67
2019-03-17T06:55:03.558Z,11.62
2019-03-17T06:55:43.967Z,11.51
2019-03-17T06:56:26.189Z,11.45
2019-03-17T06:57:08.895Z,11.49
2019-03-17T06:57:49.046Z,11.49
2019-03-17T06:58:29.584Z,11.49
2019-03-17T06:59:09.944Z,11.51
2019-03-17T06:59:53.009Z,11.62
2019-03-17T07:00:33.551Z,11.62
2019-03-17T07:01:15.722Z,11.59
2019-03-17T07:02:00.695Z,11.56
2019-03-17T07:02:40.812Z,11.59
2019-03-17T07:03:21.324Z,11.62
2019-03-17T07:04:03.470Z,11.54
2019-03-17T07:04:43.787Z,11.53
2019-03-17T07:05:24.267Z,11.46
2019-03-17T07:06:06.369Z,11.39
2019-03-17T07:06:47.069Z,11.46
2019-03-17T07:07:43.122Z,11.51
2019-03-17T07:08:13.534Z,11.48
2019-03-17T07:08:54.854Z,11.36
2019-03-17T07:09:37.245Z,11.38
2019-03-17T07:10:19.547Z,11.31
2019-03-17T07:11:00.049Z,11.21
2019-03-17T07:11:42.172Z,11.36
2019-03-17T07:12:23.267Z,11.31
2019-03-17T07:13:04.127Z,11.35
2019-03-17T07:13:44.135Z,11.28
2019-03-17T07:14:26.212Z,11.28
2019-03-17T07:15:07.851Z,11.45
2019-03-17T07:15:49.201Z,11.38
2019-03-17T07:16:29.785Z,11.33
2019-03-17T07:17:14.579Z,11.26
2019-03-17T07:22:42.443Z,11.26
2019-03-17T07:26:11.712Z,11.17
2019-03-17T07:29:20.095Z,11.35
2019-03-17T07:30:02.437Z,11.35
2019-03-17T07:30:46.037Z,11.27
2019-03-17T07:31:28.540Z,11.3
2019-03-17T07:32:09.157Z,11.3
2019-03-17T07:32:49.495Z,11.26
2019-03-17T07:33:38.560Z,11.28
2019-03-17T07:34:19.124Z,11.3
2019-03-17T07:35:03.156Z,11.39
2019-03-17T07:35:46.420Z,11.31
2019-03-17T07:36:26.499Z,11.31
2019-03-17T07:37:10.786Z,11.33
2019-03-17T07:37:56.925Z,11.16
2019-03-17T07:38:35.152Z,11.16
2019-03-17T07:39:16.449Z,10.98
2019-03-17T07:39:58.589Z,10.88
2019-03-17T07:40:39.027Z,10.87
2019-03-17T07:41:19.339Z,10.65
2019-03-17T07:41:59.720Z,10.55
2019-03-17T07:42:40.103Z,10.51
2019-03-17T07:43:20.522Z,10.38
2019-03-17T07:44:03.734Z,10.35
2019-03-17T07:44:44.042Z,10.35
2019-03-17T07:45:27.210Z,10.32
2019-03-17T07:46:07.471Z,10.46
2019-03-17T07:46:48.780Z,10.44
2019-03-17T07:47:29.151Z,10.38
2019-03-17T07:48:09.509Z,10.44
2019-03-17T07:48:49.902Z,10.52
2019-03-17T07:49:37.635Z,10.44
2019-03-17T07:50:18.042Z,10.54
2019-03-17T07:50:58.873Z,10.51
2019-03-17T07:51:41.692Z,10.51
2019-03-17T07:52:22.904Z,10.47
2019-03-17T07:53:03.273Z,10.51
2019-03-17T07:53:44.755Z,10.51
2019-03-17T07:54:26.917Z,10.44
2019-03-17T07:55:07.499Z,10.46
2019-03-17T07:55:47.888Z,10.52
2019-03-17T07:56:28.380Z,10.55
2019-03-17T07:57:09.583Z,10.44
2019-03-17T07:57:50.146Z,10.38
2019-03-17T07:58:30.532Z,10.28
2019-03-17T07:59:11.055Z,10.36
2019-03-17T07:59:52.433Z,10.31
2019-03-17T08:00:34.548Z,10.36
2019-03-17T08:01:15.067Z,10.35
2019-03-17T08:01:58.248Z,10.42
2019-03-17T08:02:38.684Z,10.42
2019-03-17T08:03:18.996Z,10.47
2019-03-17T08:03:59.337Z,10.35
2019-03-17T08:04:42.906Z,10.38
2019-03-17T08:05:20.393Z,10.28
2019-03-17T08:06:00.872Z,10.28
2019-03-17T08:06:41.150Z,10.25
2019-03-17T08:07:21.740Z,10.17
2019-03-17T08:08:09.040Z,10.29
2019-03-17T08:08:42.444Z,10.38
2019-03-17T08:09:23.830Z,10.36
2019-03-17T08:10:04.576Z,10.39
2019-03-17T08:10:45.028Z,10.36
2019-03-17T08:11:25.442Z,10.28
2019-03-17T08:12:05.769Z,10.2
2019-03-17T08:12:47.143Z,10.18
2019-03-17T08:13:28.491Z,10.22
2019-03-17T08:14:10.183Z,10.25
2019-03-17T08:14:52.576Z,10.22
2019-03-17T08:15:34.939Z,10.18
2019-03-17T08:16:16.225Z,10.26
2019-03-17T08:17:00.343Z,10.25
2019-03-17T08:17:44.625Z,10.25
2019-03-17T08:18:35.572Z,10.17
2019-03-17T08:19:16.004Z,10.25
2019-03-17T08:19:56.386Z,10.24
2019-03-17T08:20:38.428Z,10.26
2019-03-17T08:21:20.556Z,10.18
2019-03-17T08:22:01.307Z,10.26
2019-03-17T08:22:41.719Z,10.17
2019-03-17T08:23:24.144Z,10.09
2019-03-17T08:24:06.439Z,9.92
2019-03-17T08:24:46.870Z,9.99
2019-03-17T08:25:28.843Z,9.95
2019-03-17T08:26:10.284Z,9.89
2019-03-17T08:26:52.166Z,9.93
2019-03-17T08:27:33.723Z,10.01
2019-03-17T08:28:15.661Z,10.01
2019-03-17T08:28:56.063Z,9.96
2019-03-17T08:29:36.499Z,9.98
2019-03-17T08:30:16.868Z,10.13
2019-03-17T08:30:57.598Z,10.16
2019-03-17T08:31:39.728Z,10.22
2019-03-17T08:32:22.906Z,10.18
2019-03-17T08:33:03.616Z,10.26
2019-03-17T08:33:44.447Z,10.25
2019-03-17T08:34:24.912Z,10.24
2019-03-17T08:35:11.603Z,10.1
2019-03-17T08:35:52.009Z,10.22
2019-03-17T08:36:32.385Z,10.28
2019-03-17T08:37:12.847Z,10.32
2019-03-17T08:37:53.227Z,10.25
2019-03-17T08:38:36.613Z,10.31
2019-03-17T08:39:16.969Z,10.32
2019-03-17T08:39:59.301Z,10.38
2019-03-17T08:40:39.621Z,10.39
2019-03-17T08:41:21.692Z,10.38
2019-03-17T08:42:03.723Z,10.32
2019-03-17T08:42:45.589Z,10.29
2019-03-17T08:43:26.851Z,10.49
2019-03-17T08:44:09.368Z,10.44
2019-03-17T08:44:56.252Z,10.54
2019-03-17T08:45:37.494Z,10.43
2019-03-17T08:46:19.980Z,10.44
2019-03-17T08:47:09.289Z,10.42
2019-03-17T08:47:57.685Z,10.55
2019-03-17T08:48:33.775Z,10.58
2019-03-17T08:49:17.704Z,10.6
2019-03-17T08:49:58.420Z,10.57
2019-03-17T08:50:41.310Z,10.57
2019-03-17T08:51:22.635Z,10.66
2019-03-17T08:52:02.982Z,10.75
2019-03-17T08:52:44.902Z,10.72
2019-03-17T08:53:36.854Z,10.68
2019-03-17T08:54:17.332Z,10.72
2019-03-17T08:54:59.608Z,10.83
2019-03-17T08:55:40.401Z,10.83
2019-03-17T08:56:20.756Z,10.87
2019-03-17T08:57:01.955Z,10.76
2019-03-17T08:57:43.750Z,10.65
2019-03-17T08:58:24.467Z,10.52
2019-03-17T08:59:04.783Z,10.55
2019-03-17T08:59:46.853Z,10.49
2019-03-17T09:00:29.798Z,10.51
2019-03-17T09:01:11.570Z,10.63
2019-03-17T09:01:55.627Z,10.54
2019-03-17T09:02:38.255Z,10.58
2019-03-17T09:03:19.868Z,10.62
2019-03-17T09:04:03.057Z,10.66
2019-03-17T09:04:43.407Z,10.68
2019-03-17T09:05:28.620Z,10.49
2019-03-17T09:06:15.114Z,10.6
2019-03-17T09:06:56.581Z,10.68
2019-03-17T09:07:38.621Z,10.63
2019-03-17T09:08:33.740Z,10.6
2019-03-17T09:09:01.612Z,10.69
2019-03-17T09:09:42.207Z,10.72
2019-03-17T09:10:23.563Z,10.94
2019-03-17T09:11:03.906Z,10.93
2019-03-17T09:11:45.013Z,10.99
2019-03-17T09:12:25.392Z,11.09
2019-03-17T09:13:05.775Z,11.21
2019-03-17T09:13:47.065Z,11.23
2019-03-17T09:14:27.465Z,11.27
2019-03-17T09:15:11.325Z,11.24
2019-03-17T09:15:51.850Z,11.23
2019-03-17T09:16:32.139Z,11.33
2019-03-17T09:17:14.502Z,11.35
2019-03-17T09:17:52.899Z,11.35
2019-03-17T09:18:33.292Z,11.27
2019-03-17T09:19:13.660Z,11.35
2019-03-17T09:19:55.943Z,11.38
2019-03-17T09:20:37.518Z,11.39
2019-03-17T09:21:19.049Z,11.3
2019-03-17T09:21:59.433Z,11.28
2019-03-17T09:22:39.877Z,11.31
2019-03-17T09:23:21.258Z,11.27
2019-03-17T09:24:02.069Z,11.35
2019-03-17T09:24:43.204Z,11.3
2019-03-17T09:25:25.116Z,11.33
2019-03-17T09:26:09.475Z,11.36
2019-03-17T09:26:51.563Z,11.39
2019-03-17T09:27:31.962Z,11.39
2019-03-17T09:28:12.379Z,11.48
2019-03-17T09:28:52.759Z,11.49
2019-03-17T09:29:35.125Z,11.59
2019-03-17T09:30:16.662Z,11.66
2019-03-17T09:30:57.071Z,11.63
2019-03-17T09:31:37.422Z,11.59
2019-03-17T09:32:20.565Z,11.64
2019-03-17T09:33:03.970Z,11.66
2019-03-17T09:33:44.441Z,11.67
2019-03-17T09:34:25.727Z,11.62
2019-03-17T09:35:06.136Z,11.79
2019-03-17T09:35:59.373Z,11.88
2019-03-17T09:36:41.618Z,12
2019-03-17T09:37:23.682Z,11.93
2019-03-17T09:38:04.237Z,11.9
2019-03-17T09:38:53.064Z,11.97
2019-03-17T09:39:34.159Z,11.94
2019-03-17T09:40:14.490Z,12
2019-03-17T09:40:54.926Z,11.98
2019-03-17T09:41:40.036Z,12.07
2019-03-17T09:42:21.275Z,12.11
2019-03-17T09:43:05.066Z,12.16
2019-03-17T09:43:48.121Z,12.13
2019-03-17T09:44:28.522Z,12.12
2019-03-17T09:45:08.950Z,11.9
2019-03-17T09:45:51.166Z,11.93
2019-03-17T09:46:31.688Z,12.07
2019-03-17T09:47:17.102Z,11.97
2019-03-17T09:47:59.074Z,12.08
2019-03-17T09:48:41.358Z,11.93
2019-03-17T09:49:24.425Z,12.12
2019-03-17T09:50:04.666Z,12.11
2019-03-17T09:50:45.508Z,12.16
2019-03-17T09:51:27.701Z,12.31
2019-03-17T09:54:33.124Z,12.56
2019-03-17T09:57:19.195Z,12.63
2019-03-17T09:58:54.543Z,12.62
2019-03-17T10:02:14.554Z,12.52
2019-03-17T10:02:56.892Z,12.55
2019-03-17T10:03:40.975Z,12.56
2019-03-17T10:05:44.613Z,12.55
2019-03-17T10:06:44.482Z,12.56
2019-03-17T10:07:38.463Z,12.54
2019-03-17T10:10:42.908Z,12.62
2019-03-17T10:11:25.392Z,12.59
2019-03-17T10:12:05.780Z,12.63
2019-03-17T10:12:47.123Z,12.62
2019-03-17T10:13:27.505Z,12.74
2019-03-17T10:14:10.557Z,12.76
2019-03-17T10:15:10.517Z,12.62
2019-03-17T10:15:51.087Z,12.62
2019-03-17T10:16:31.851Z,12.7
2019-03-17T10:17:12.275Z,12.59
2019-03-17T10:17:53.618Z,12.63
2019-03-17T10:18:34.911Z,12.59
2019-03-17T10:19:18.817Z,12.67
2019-03-17T10:19:59.361Z,12.67
2019-03-17T10:20:40.646Z,12.74
2019-03-17T10:21:21.969Z,12.59
2019-03-17T10:22:02.392Z,12.56
2019-03-17T10:22:43.276Z,12.62
2019-03-17T10:23:25.452Z,12.74
2019-03-17T10:24:05.902Z,12.61
2019-03-17T10:24:49.077Z,12.69
2019-03-17T10:25:30.273Z,12.76
2019-03-17T10:26:10.689Z,12.63
2019-03-17T10:26:51.211Z,12.77
2019-03-17T10:27:43.953Z,12.61
2019-03-17T10:28:24.305Z,12.59
2019-03-17T10:29:15.328Z,12.52
2019-03-17T11:06:57.535Z,12.95
2019-03-17T11:07:40.299Z,13.16
2019-03-17T11:08:20.673Z,13.25
2019-03-17T11:09:01.086Z,13.31
2019-03-17T11:09:43.080Z,13.38
2019-03-17T11:10:23.381Z,13.43
2019-03-17T11:11:05.515Z,13.55
2019-03-17T11:11:45.919Z,13.59
2019-03-17T11:12:26.310Z,13.69
2019-03-17T11:13:08.406Z,13.73
2019-03-17T11:13:49.855Z,13.71
2019-03-17T11:14:31.179Z,13.61
2019-03-17T11:15:11.945Z,13.54
2019-03-17T11:15:52.300Z,13.54
2019-03-17T11:16:32.727Z,13.63
2019-03-17T11:17:13.123Z,13.8
2019-03-17T11:17:53.540Z,13.61
2019-03-17T11:18:34.013Z,13.5
2019-03-17T11:19:15.283Z,13.61
2019-03-17T11:19:55.626Z,13.48
2019-03-17T11:20:36.119Z,13.5
2019-03-17T11:21:16.478Z,13.55
2019-03-17T11:21:56.837Z,13.59
2019-03-17T11:22:40.031Z,13.91
2019-03-17T11:23:20.402Z,14.09
2019-03-17T11:24:00.831Z,14.23
2019-03-17T11:24:43.166Z,14.39
2019-03-17T11:25:25.463Z,14.56
2019-03-17T11:26:05.977Z,14.72
2019-03-17T11:26:47.421Z,14.95
2019-03-17T11:27:27.893Z,15.12
2019-03-17T11:28:11.200Z,15.31
2019-03-17T11:28:53.557Z,15.53
2019-03-17T11:29:34.793Z,15.62
2019-03-17T11:30:17.028Z,15.64
2019-03-17T11:30:57.385Z,15.95
2019-03-17T11:31:38.830Z,16.01
2019-03-17T11:32:19.163Z,16.06
2019-03-17T11:33:03.353Z,16.18
2019-03-17T11:33:46.023Z,16.42
2019-03-17T11:34:26.357Z,16.55
2019-03-17T11:35:06.732Z,16.33
2019-03-17T11:35:48.929Z,16.33
2019-03-17T11:36:29.464Z,16.32
2019-03-17T11:37:09.857Z,16.32
2019-03-17T11:37:53.679Z,16.4
2019-03-17T11:38:34.106Z,16.3
2019-03-17T11:39:16.504Z,16.25
2019-03-17T11:39:56.881Z,16.04
2019-03-17T11:40:37.312Z,16.03
2019-03-17T11:41:18.308Z,15.91
2019-03-17T11:41:58.830Z,15.84
2019-03-17T11:42:39.650Z,15.67
2019-03-17T11:43:20.039Z,15.58
2019-03-17T11:44:04.178Z,15.51
2019-03-17T11:44:45.702Z,15.35
2019-03-17T11:45:26.068Z,15.34
2019-03-17T11:46:06.402Z,15.43
2019-03-17T11:46:46.745Z,15.38
2019-03-17T11:47:28.829Z,15.43
2019-03-17T11:48:09.317Z,15.2
2019-03-17T11:48:53.287Z,15.07
2019-03-17T11:49:38.380Z,15.03
2019-03-17T11:50:18.789Z,15.03
2019-03-17T11:50:59.314Z,14.93
2019-03-17T11:51:40.831Z,14.87
2019-03-17T11:52:21.890Z,14.83
2019-03-17T11:53:02.752Z,14.8
2019-03-17T11:53:44.780Z,14.83
2019-03-17T11:54:27.652Z,14.93
2019-03-17T11:55:08.940Z,15.03
2019-03-17T11:55:50.442Z,15.18
2019-03-17T11:56:30.796Z,15.33
2019-03-17T11:57:12.096Z,15.52
2019-03-17T11:57:52.759Z,15.77
2019-03-17T11:58:33.653Z,15.86
2019-03-17T11:59:14.039Z,15.89
2019-03-17T11:59:56.136Z,15.99
2019-03-17T12:00:38.746Z,16.18
2019-03-17T12:01:19.697Z,16.27
2019-03-17T12:02:01.781Z,16.48
2019-03-17T12:02:42.308Z,16.44
2019-03-17T12:03:22.910Z,16.5
2019-03-17T12:04:04.425Z,16.32
2019-03-17T12:04:46.659Z,16.47
2019-03-17T12:05:28.740Z,16.47
2019-03-17T12:06:12.855Z,16.45
2019-03-17T12:06:53.228Z,16.3
2019-03-17T12:07:33.595Z,16.42
2019-03-17T12:08:18.003Z,16.27
2019-03-17T12:08:59.182Z,16.27
2019-03-17T12:09:49.866Z,16.36
2019-03-17T12:10:22.009Z,16.34
2019-03-17T12:11:04.744Z,16.4
2019-03-17T12:11:45.202Z,16.4
2019-03-17T12:12:25.619Z,16.48
2019-03-17T12:13:07.758Z,16.51
2019-03-17T12:13:50.626Z,16.62
2019-03-17T12:14:30.984Z,16.72
2019-03-17T12:15:11.406Z,16.81
2019-03-17T12:15:52.871Z,16.66
2019-03-17T12:16:35.934Z,16.66
2019-03-17T12:17:16.454Z,16.77
2019-03-17T12:17:57.625Z,16.72
2019-03-17T12:18:39.216Z,16.78
2019-03-17T12:19:19.403Z,16.81
2019-03-17T12:19:59.798Z,16.72
2019-03-17T12:20:43.990Z,16.6
2019-03-17T12:21:24.451Z,16.55
2019-03-17T12:22:09.218Z,16.54
2019-03-17T12:22:48.234Z,16.44
2019-03-17T12:23:30.335Z,16.59
2019-03-17T12:24:13.124Z,16.6
2019-03-17T12:24:55.908Z,16.67